Clifton, Maryland
Current Conditions -  °F | °C
As of 10:50 AM on Saturday 25 Oct 2014 (Local Time) from KMTN Reporting Station
Few Clouds Few Clouds  
Wind Chill: 63°   Ceiling: Unl
Heat Index: 63°   Visibility: 10mi
Dew Point: 46°   Wind: 0mph
Humidity: 55%   Direction: NA
Pressure: 29.95"   Gusts: NA
Location:  39.315°N, 76.5768°W
Report Text: KMTN 251450Z 00000KT 10SM FEW120 17/08 A2995
Loading
Personal Weather Stations






























Interactive Weather Map
Tropical Storm Tracking
New forecast layout! Learn more

10-Day Weather Forecast

Advertisements
Track Severe Weather on mobile